Time;durP1;ratioP1;P1;durP2;ratioP2;P2;SDS_P1;SDS_P2;PMS_P1;PMS_P2;Temp;Humidity;BMP_temperature;BMP_pressure;BME280_temperature;BME280_humidity;BME280_pressure;Samples;Min_cycle;Max_cycle;Signal;HPM_P1;HPM_P2
2022/09/17 00:01:30;;;;;;;10.20;3.08;;;;;;;17.13;100.00;92344.03;5111951;28;20523;-73
2022/09/17 00:04:02;;;;;;;6.28;2.65;;;;;;;17.03;100.00;92313.75;5112135;28;20152;-73
2022/09/17 00:06:31;;;;;;;7.28;2.40;;;;;;;17.19;100.00;92340.34;5112131;28;20043;-73
2022/09/17 00:08:58;;;;;;;7.72;3.38;;;;;;;17.20;100.00;92331.50;5111999;28;20043;-73
2022/09/17 00:11:26;;;;;;;5.60;2.25;;;;;;;17.21;100.00;92330.47;5105868;28;20086;-73
2022/09/17 00:13:54;;;;;;;5.68;2.90;;;;;;;17.21;100.00;92327.88;5091276;28;20089;-73
2022/09/17 00:16:26;;;;;;;7.40;2.50;;;;;;;17.23;100.00;92320.59;5091559;28;20040;-73
2022/09/17 00:18:55;;;;;;;8.20;2.20;;;;;;;17.21;100.00;92320.88;5093094;28;20462;-73
2022/09/17 00:21:22;;;;;;;6.05;2.50;;;;;;;17.22;100.00;92319.06;5111655;28;20104;-73
2022/09/17 00:23:54;;;;;;;12.45;2.67;;;;;;;17.16;100.00;92313.13;5109011;28;20407;-73
2022/09/17 00:26:20;;;;;;;6.78;2.60;;;;;;;17.11;100.00;92320.19;5111782;28;20461;-73
2022/09/17 00:28:50;;;;;;;11.43;3.00;;;;;;;17.06;100.00;92319.19;5111316;28;20085;-73
2022/09/17 00:31:16;;;;;;;7.18;2.53;;;;;;;17.08;100.00;92330.03;5111627;28;20040;-74
2022/09/17 00:33:43;;;;;;;9.20;2.80;;;;;;;17.09;100.00;92331.59;5111513;28;20044;-73
2022/09/17 00:36:11;;;;;;;8.50;2.63;;;;;;;17.14;100.00;92323.00;5111179;28;20040;-73
2022/09/17 00:38:38;;;;;;;7.22;2.53;;;;;;;17.18;100.00;92331.78;5111205;28;20048;-73
2022/09/17 00:41:05;;;;;;;5.80;2.30;;;;;;;17.26;100.00;92337.44;5111208;28;20516;-73
2022/09/17 00:43:42;;;;;;;7.90;2.80;;;;;;;17.27;100.00;92339.00;5111014;28;20043;-73
2022/09/17 00:46:22;;;;;;;6.25;2.45;;;;;;;17.29;100.00;92334.28;5111170;28;20043;-73
2022/09/17 00:48:51;;;;;;;6.65;2.65;;;;;;;17.27;100.00;92333.81;5110950;28;20044;-74
2022/09/17 00:51:25;;;;;;;7.53;2.63;;;;;;;17.18;100.00;92326.59;5110953;28;20498;-75
2022/09/17 00:53:52;;;;;;;9.98;2.88;;;;;;;17.30;100.00;92339.22;5111137;28;20047;-74
2022/09/17 00:56:25;;;;;;;5.80;2.38;;;;;;;17.23;100.00;92342.13;5111264;28;20047;-75
2022/09/17 00:58:52;;;;;;;9.63;2.60;;;;;;;17.12;100.00;92342.50;5111149;28;20044;-75
2022/09/17 01:01:19;;;;;;;9.85;3.00;;;;;;;16.98;100.00;92350.84;5110640;28;20112;-75
2022/09/17 01:03:46;;;;;;;7.80;2.85;;;;;;;16.93;100.00;92349.06;5110817;28;20437;-75
2022/09/17 01:06:21;;;;;;;8.57;2.75;;;;;;;16.97;100.00;92341.50;5110923;28;20120;-75
2022/09/17 01:09:14;;;;;;;9.17;2.93;;;;;;;16.99;100.00;92336.06;5110848;28;20049;-74
2022/09/17 01:11:59;;;;;;;8.93;2.97;;;;;;;16.96;100.00;92324.41;5110740;28;20292;-74
2022/09/17 01:14:48;;;;;;;6.27;3.00;;;;;;;17.07;100.00;92322.53;5110875;28;20375;-73
2022/09/17 01:17:22;;;;;;;9.32;3.00;;;;;;;17.17;100.00;92330.25;5110339;28;20051;-73
2022/09/17 01:20:22;;;;;;;12.50;3.10;;;;;;;17.14;100.00;92319.63;5110569;28;20448;-73
2022/09/17 01:23:00;;;;;;;24.85;7.70;;;;;;;17.29;100.00;92336.88;5109630;28;20499;-73
2022/09/17 01:25:38;;;;;;;13.63;3.88;;;;;;;17.09;100.00;92333.44;5110430;28;20122;-74
2022/09/17 01:28:31;;;;;;;12.35;3.70;;;;;;;17.06;100.00;92354.72;5109951;28;20039;-73
2022/09/17 01:31:11;;;;;;;9.10;3.08;;;;;;;17.14;100.00;92353.38;5110230;28;20507;-73
2022/09/17 01:33:45;;;;;;;9.40;3.33;;;;;;;17.01;100.00;92352.13;5109960;28;20509;-74
2022/09/17 01:36:33;;;;;;;8.93;3.70;;;;;;;17.00;100.00;92351.38;5110282;28;20048;-73
2022/09/17 01:39:06;;;;;;;9.43;4.03;;;;;;;17.05;100.00;92337.59;5110270;28;20044;-73
2022/09/17 01:41:40;;;;;;;12.07;3.90;;;;;;;17.15;100.00;92337.53;5110210;28;20050;-73
2022/09/17 01:44:16;;;;;;;9.55;4.10;;;;;;;17.22;100.00;92334.63;5110059;28;20043;-73
2022/09/17 01:46:48;;;;;;;11.88;3.63;;;;;;;17.29;100.00;92336.88;5110021;28;20100;-73
2022/09/17 01:49:16;;;;;;;8.48;3.10;;;;;;;17.34;100.00;92332.44;5110144;28;20096;-74
2022/09/17 01:51:48;;;;;;;7.28;2.80;;;;;;;17.36;100.00;92327.75;5109893;28;20104;-74
2022/09/17 01:54:21;;;;;;;9.02;3.13;;;;;;;17.27;100.00;92307.84;5109899;28;20112;-73
2022/09/17 01:56:55;;;;;;;7.30;2.75;;;;;;;17.49;100.00;92335.94;5109657;28;20487;-73
2022/09/17 01:59:27;;;;;;;8.93;2.00;;;;;;;17.55;100.00;92339.28;5109260;28;20052;-73
2022/09/17 02:02:03;;;;;;;8.07;2.55;;;;;;;17.58;100.00;92344.69;5109951;28;20101;-74
2022/09/17 02:04:34;;;;;;;6.72;2.25;;;;;;;17.57;100.00;92350.16;5109508;28;20100;-74
2022/09/17 02:07:05;;;;;;;7.57;2.20;;;;;;;17.67;100.00;92334.47;5109336;28;20162;-74
2022/09/17 02:09:38;;;;;;;6.80;1.92;;;;;;;17.79;100.00;92312.53;5109492;28;20780;-72
2022/09/17 02:12:11;;;;;;;6.68;1.95;;;;;;;17.82;100.00;92286.78;5109491;28;20043;-72
2022/09/17 02:14:43;;;;;;;8.57;1.70;;;;;;;17.78;100.00;92249.44;5109495;28;20047;-73
2022/09/17 02:17:21;;;;;;;9.85;2.28;;;;;;;17.88;100.00;92249.28;5109551;28;20453;-73
2022/09/17 02:19:48;;;;;;;5.05;1.45;;;;;;;17.89;100.00;92243.06;5109166;28;20040;-72
2022/09/17 02:22:23;;;;;;;5.88;2.58;;;;;;;17.86;100.00;92233.22;5109515;28;20043;-75
2022/09/17 02:24:58;;;;;;;7.45;2.50;;;;;;;17.89;100.00;92229.28;5109438;28;20043;-75
2022/09/17 02:27:37;;;;;;;7.20;2.03;;;;;;;17.90;100.00;92236.81;5108987;28;20044;-74
2022/09/17 02:30:04;;;;;;;6.25;2.53;;;;;;;17.93;100.00;92225.09;5109189;28;20039;-72
2022/09/17 02:32:33;;;;;;;8.68;1.80;;;;;;;17.93;100.00;92234.69;5109399;28;20487;-72
2022/09/17 02:35:00;;;;;;;6.30;1.85;;;;;;;17.95;100.00;92224.81;5107927;28;20092;-72
2022/09/17 02:37:27;;;;;;;6.60;1.60;;;;;;;17.95;100.00;92220.38;5109343;28;20433;-72
2022/09/17 02:39:54;;;;;;;13.02;2.08;;;;;;;17.94;100.00;92231.06;5108979;28;20046;-72
2022/09/17 02:42:28;;;;;;;8.57;1.83;;;;;;;17.93;100.00;92232.09;5109163;28;20108;-72
2022/09/17 02:45:03;;;;;;;5.60;1.80;;;;;;;17.84;100.00;92219.75;5108927;28;20068;-73
2022/09/17 02:48:00;;;;;;;7.35;2.42;;;;;;;17.76;100.00;92187.38;5109012;28;20028;-73
2022/09/17 02:50:40;;;;;;;7.70;2.13;;;;;;;17.68;100.00;92190.59;5101695;28;20039;-73
2022/09/17 02:53:25;;;;;;;7.65;2.08;;;;;;;17.65;100.00;92167.78;5109175;28;20088;-72
2022/09/17 02:56:00;;;;;;;9.55;2.17;;;;;;;17.68;100.00;92182.78;5108820;28;20494;-72
2022/09/17 02:58:33;;;;;;;5.50;2.03;;;;;;;17.60;100.00;92179.00;5108856;28;20499;-72
2022/09/17 03:01:07;;;;;;;10.10;1.90;;;;;;;17.62;100.00;92174.31;5109115;28;20047;-73
2022/09/17 03:03:41;;;;;;;8.43;2.47;;;;;;;17.62;100.00;92186.50;5109085;28;20088;-72
2022/09/17 03:06:08;;;;;;;7.40;1.73;;;;;;;17.59;100.00;92187.84;5108939;28;20048;-72
2022/09/17 03:08:39;;;;;;;5.30;1.77;;;;;;;17.67;100.00;92222.81;5108809;28;20040;-72
2022/09/17 03:11:07;;;;;;;6.13;1.98;;;;;;;17.67;100.00;92235.78;5109008;28;20043;-72
2022/09/17 03:13:35;;;;;;;10.13;3.10;;;;;;;17.72;100.00;92225.34;5109038;28;20445;-72
2022/09/17 03:16:02;;;;;;;11.25;4.10;;;;;;;17.79;100.00;92219.03;5108787;28;20051;-72
2022/09/17 03:18:29;;;;;;;9.13;2.63;;;;;;;17.82;100.00;92216.66;5108646;28;20506;-72
2022/09/17 03:20:57;;;;;;;10.00;2.95;;;;;;;17.84;100.00;92204.16;5108571;28;20048;-72
2022/09/17 03:23:24;;;;;;;6.32;2.20;;;;;;;17.88;100.00;92199.19;5108414;28;20040;-72
2022/09/17 03:25:51;;;;;;;13.35;2.50;;;;;;;17.91;100.00;92201.19;5108567;28;20043;-71
2022/09/17 03:28:17;;;;;;;6.35;2.13;;;;;;;17.94;100.00;92195.47;5108923;28;20036;-72
2022/09/17 03:30:44;;;;;;;5.28;2.00;;;;;;;17.89;100.00;92188.53;5108775;28;20051;-72
2022/09/17 03:33:11;;;;;;;8.18;1.90;;;;;;;17.87;100.00;92177.63;5108736;28;20035;-71
2022/09/17 03:35:38;;;;;;;8.02;1.98;;;;;;;17.91;100.00;92172.63;5108378;28;20101;-71
2022/09/17 03:38:06;;;;;;;6.25;1.85;;;;;;;17.88;100.00;92160.97;5108283;28;20055;-71
2022/09/17 03:40:33;;;;;;;8.57;2.25;;;;;;;17.86;100.00;92157.91;5108532;28;20666;-71
2022/09/17 03:42:59;;;;;;;7.03;2.25;;;;;;;17.88;100.00;92160.22;5108882;28;20088;-71
2022/09/17 03:45:26;;;;;;;8.95;1.90;;;;;;;17.86;100.00;92164.91;5108573;28;20495;-72
2022/09/17 03:47:53;;;;;;;8.00;2.20;;;;;;;17.85;100.00;92161.53;5116392;27;20035;-72
2022/09/17 03:50:20;;;;;;;5.05;2.25;;;;;;;17.83;100.00;92170.66;5129746;27;20112;-72
2022/09/17 03:52:47;;;;;;;8.95;2.58;;;;;;;17.84;100.00;92175.59;5109144;27;20122;-72
2022/09/17 03:55:16;;;;;;;7.93;1.85;;;;;;;17.88;100.00;92193.97;5131347;27;20510;-72
2022/09/17 03:57:42;;;;;;;8.63;2.38;;;;;;;17.93;100.00;92201.72;5111868;28;20097;-74
2022/09/17 04:00:14;;;;;;;6.80;2.45;;;;;;;17.96;100.00;92201.13;5109239;28;20040;-72
2022/09/17 04:02:41;;;;;;;6.45;1.98;;;;;;;17.99;100.00;92210.19;5112525;28;20108;-72
2022/09/17 04:05:09;;;;;;;11.25;2.33;;;;;;;17.94;100.00;92210.25;5108914;28;20036;-72
2022/09/17 04:07:36;;;;;;;10.60;2.22;;;;;;;17.86;100.00;92219.44;5105505;27;20466;-72
2022/09/17 04:10:04;;;;;;;7.40;2.33;;;;;;;17.74;100.00;92240.66;5123174;27;20043;-72
2022/09/17 04:12:32;;;;;;;5.85;1.92;;;;;;;17.68;100.00;92246.97;5096820;27;20084;-72
2022/09/17 04:14:58;;;;;;;9.05;2.67;;;;;;;17.62;100.00;92251.41;5132637;27;20485;-72
2022/09/17 04:17:25;;;;;;;7.25;3.20;;;;;;;17.56;100.00;92279.28;5098122;27;20044;-72
2022/09/17 04:19:52;;;;;;;10.13;3.65;;;;;;;17.31;100.00;92294.03;5111465;28;20051;-72
2022/09/17 04:22:19;;;;;;;6.80;2.83;;;;;;;17.32;100.00;92300.03;5111569;28;20056;-72
2022/09/17 04:24:45;;;;;;;7.05;2.47;;;;;;;17.17;100.00;92316.50;5111941;28;20056;-72
2022/09/17 04:27:12;;;;;;;8.18;2.35;;;;;;;17.21;100.00;92318.28;5091037;28;20044;-71
2022/09/17 04:29:40;;;;;;;8.43;2.42;;;;;;;17.31;100.00;92320.00;5091274;28;20047;-71
2022/09/17 04:32:07;;;;;;;7.85;2.55;;;;;;;17.40;100.00;92335.75;5099602;27;20039;-71
2022/09/17 04:34:34;;;;;;;6.80;2.30;;;;;;;17.18;100.00;92344.75;5108078;27;20444;-71
2022/09/17 04:37:01;;;;;;;9.07;3.42;;;;;;;17.12;100.00;92335.47;5112822;27;20058;-71
2022/09/17 04:39:28;;;;;;;6.50;1.95;;;;;;;17.15;100.00;92340.13;5116194;27;20062;-72
2022/09/17 04:41:55;;;;;;;14.13;2.80;;;;;;;17.27;100.00;92357.16;5118075;27;20051;-72
2022/09/17 04:44:22;;;;;;;8.05;2.90;;;;;;;17.30;100.00;92370.38;5121333;27;20047;-71
2022/09/17 04:46:50;;;;;;;8.55;2.15;;;;;;;17.23;100.00;92367.31;5129772;27;20406;-71
2022/09/17 04:49:17;;;;;;;11.25;2.80;;;;;;;17.35;100.00;92408.47;5122879;27;20066;-72
2022/09/17 04:51:44;;;;;;;6.70;2.63;;;;;;;17.39;100.00;92408.72;5116865;27;20047;-71
2022/09/17 04:54:10;;;;;;;8.55;2.58;;;;;;;17.35;100.00;92400.69;5123967;27;20046;-71
2022/09/17 04:56:37;;;;;;;8.90;2.47;;;;;;;17.31;100.00;92378.94;5131451;27;20096;-71
2022/09/17 04:59:04;;;;;;;13.38;2.60;;;;;;;17.32;100.00;92368.25;5130597;27;20507;-71
2022/09/17 05:01:31;;;;;;;8.52;2.63;;;;;;;17.38;100.00;92365.63;5131588;27;20084;-72
2022/09/17 05:03:59;;;;;;;5.82;2.15;;;;;;;17.40;100.00;92361.72;5132109;27;20096;-71
2022/09/17 05:06:25;;;;;;;6.78;2.80;;;;;;;17.45;100.00;92351.28;5122864;27;20044;-71
2022/09/17 05:08:52;;;;;;;19.35;4.55;;;;;;;17.17;100.00;92352.84;5130265;27;20100;-71
2022/09/17 05:11:19;;;;;;;9.43;3.33;;;;;;;16.78;100.00;92354.34;5124894;27;20100;-71
2022/09/17 05:13:46;;;;;;;12.63;4.18;;;;;;;16.35;100.00;92345.25;5131595;27;20445;-71
2022/09/17 05:16:12;;;;;;;13.18;3.33;;;;;;;16.37;100.00;92308.69;5131711;27;20091;-71
2022/09/17 05:18:39;;;;;;;7.45;2.97;;;;;;;16.51;100.00;92296.69;5131628;27;20360;-71
2022/09/17 05:21:07;;;;;;;8.45;2.58;;;;;;;16.55;100.00;92326.22;5117167;27;20047;-71
2022/09/17 05:23:34;;;;;;;8.20;3.40;;;;;;;16.60;100.00;92345.38;5102616;27;20036;-71
2022/09/17 05:26:01;;;;;;;8.52;3.55;;;;;;;16.68;100.00;92343.00;5091402;28;20506;-71
2022/09/17 05:28:28;;;;;;;8.15;3.10;;;;;;;16.85;100.00;92341.84;5090937;28;20089;-72
2022/09/17 05:30:58;;;;;;;6.97;3.58;;;;;;;16.94;100.00;92345.44;5101339;27;20093;-72
2022/09/17 05:33:25;;;;;;;7.22;3.80;;;;;;;16.98;100.00;92340.47;5109370;27;20499;-71
2022/09/17 05:35:52;;;;;;;17.85;5.97;;;;;;;17.07;100.00;92332.91;5130065;27;20139;-72
2022/09/17 05:38:20;;;;;;;10.82;4.72;;;;;;;17.22;100.00;92339.81;5130791;27;20092;-72
2022/09/17 05:40:47;;;;;;;11.38;4.07;;;;;;;17.35;100.00;92341.00;5120370;27;20048;-72
2022/09/17 05:43:15;;;;;;;10.88;4.35;;;;;;;17.46;100.00;92341.69;5127586;27;20499;-72
2022/09/17 05:45:41;;;;;;;9.13;3.15;;;;;;;17.60;100.00;92339.22;5124408;27;20127;-72
2022/09/17 05:48:12;;;;;;;6.68;3.78;;;;;;;17.68;100.00;92333.41;5131202;27;20453;-71
2022/09/17 05:50:40;;;;;;;10.00;3.63;;;;;;;17.79;100.00;92326.31;5130681;27;20046;-72
2022/09/17 05:53:08;;;;;;;11.50;4.03;;;;;;;17.87;100.00;92324.94;5130465;27;20502;-72
2022/09/17 05:55:36;;;;;;;9.68;3.90;;;;;;;17.99;100.00;92316.72;5130486;27;20047;-71
2022/09/17 05:58:10;;;;;;;10.43;3.95;;;;;;;18.10;100.00;92314.84;5130680;27;20091;-71
2022/09/17 06:00:37;;;;;;;8.75;3.75;;;;;;;18.16;100.00;92321.50;5130525;27;20039;-71
2022/09/17 06:03:04;;;;;;;7.57;2.85;;;;;;;18.20;100.00;92317.31;5130467;27;20051;-72
2022/09/17 06:05:53;;;;;;;7.18;2.80;;;;;;;18.17;100.00;92317.84;5126368;27;20040;-72
2022/09/17 06:08:20;;;;;;;9.95;2.92;;;;;;;18.24;100.00;92320.88;5088973;28;20048;-72
2022/09/17 06:10:48;;;;;;;7.57;3.10;;;;;;;18.30;100.00;92332.00;5122459;27;20058;-71
2022/09/17 06:13:15;;;;;;;10.48;3.00;;;;;;;18.33;100.00;92336.63;5130567;27;20108;-71
2022/09/17 06:15:41;;;;;;;7.22;2.75;;;;;;;18.39;100.00;92340.72;5129897;27;20511;-72
2022/09/17 06:18:08;;;;;;;13.32;3.92;;;;;;;18.44;100.00;92358.09;5130216;27;20043;-72
2022/09/17 06:20:35;;;;;;;9.35;3.70;;;;;;;18.45;100.00;92369.25;5115968;27;20097;-72
2022/09/17 06:23:02;;;;;;;14.73;4.20;;;;;;;18.47;100.00;92374.97;5101316;27;20549;-72
2022/09/17 06:25:28;;;;;;;15.27;4.53;;;;;;;18.47;100.00;92365.31;5130221;27;20435;-72
2022/09/17 06:27:56;;;;;;;9.32;3.65;;;;;;;18.49;100.00;92372.84;5106291;27;20043;-72
2022/09/17 06:30:23;;;;;;;7.72;3.65;;;;;;;18.33;100.00;92370.41;5127980;27;20039;-72
2022/09/17 06:32:50;;;;;;;7.18;4.43;;;;;;;18.21;100.00;92364.84;5130291;27;20104;-71
2022/09/17 06:35:17;;;;;;;11.85;4.80;;;;;;;17.70;100.00;92357.31;5130122;27;20415;-72
2022/09/17 06:37:43;;;;;;;7.78;4.32;;;;;;;17.55;100.00;92337.44;5110486;27;20051;-72
2022/09/17 06:40:11;;;;;;;9.50;3.65;;;;;;;17.73;100.00;92335.22;5097548;27;20047;-72
2022/09/17 06:42:37;;;;;;;9.77;4.35;;;;;;;17.90;100.00;92337.34;5123500;27;20047;-72
2022/09/17 06:45:06;;;;;;;13.68;4.90;;;;;;;18.07;100.00;92342.16;5116866;28;20084;-72
2022/09/17 06:47:33;;;;;;;13.38;4.38;;;;;;;18.23;100.00;92336.78;5121570;28;20044;-72
2022/09/17 06:50:00;;;;;;;15.57;4.95;;;;;;;18.36;100.00;92336.06;5088729;28;20093;-72
2022/09/17 06:52:27;;;;;;;11.55;4.97;;;;;;;18.50;100.00;92323.16;5125317;28;20043;-72
2022/09/17 06:54:54;;;;;;;8.77;2.75;;;;;;;18.45;100.00;92302.44;5101020;28;20104;-72
2022/09/17 06:57:21;;;;;;;8.43;3.17;;;;;;;18.69;100.00;92312.75;5130349;28;20051;-72
2022/09/17 06:59:48;;;;;;;10.32;3.10;;;;;;;18.91;100.00;92282.00;5129712;28;20104;-72
2022/09/17 07:02:16;;;;;;;7.65;2.00;;;;;;;19.00;100.00;92277.69;5122169;28;20156;-72
2022/09/17 07:04:43;;;;;;;6.05;2.20;;;;;;;19.31;100.00;92282.41;5088102;28;20044;-72
2022/09/17 07:07:10;;;;;;;4.13;1.80;;;;;;;19.60;100.00;92289.22;5088639;28;20499;-72
2022/09/17 07:09:37;;;;;;;6.13;1.65;;;;;;;19.72;100.00;92299.16;5126410;28;20047;-72
2022/09/17 07:12:08;;;;;;;5.72;1.60;;;;;;;19.68;100.00;92279.97;5129735;28;20047;-72
2022/09/17 07:14:34;;;;;;;2.63;1.00;;;;;;;19.62;100.00;92294.91;5129741;28;20051;-72
2022/09/17 07:17:01;;;;;;;4.93;1.30;;;;;;;19.91;100.00;92295.69;5129398;28;20046;-72
2022/09/17 07:19:29;;;;;;;4.47;1.20;;;;;;;20.18;100.00;92296.00;5122808;28;20517;-72
2022/09/17 07:21:56;;;;;;;3.67;1.40;;;;;;;20.55;100.00;92294.94;5124893;27;20495;-72
2022/09/17 07:24:23;;;;;;;5.03;1.00;;;;;;;20.79;100.00;92293.13;5133215;27;20095;-72
2022/09/17 07:26:50;;;;;;;3.65;0.95;;;;;;;20.99;100.00;92294.53;5133674;27;20047;-72
2022/09/17 07:29:16;;;;;;;7.85;1.30;;;;;;;21.28;100.00;92289.94;5132976;27;20044;-71
2022/09/17 07:31:43;;;;;;;1.30;0.40;;;;;;;21.33;98.03;92287.97;5133736;27;20392;-72
2022/09/17 07:34:10;;;;;;;3.83;0.68;;;;;;;21.34;98.83;92281.66;5133438;27;20096;-72
2022/09/17 07:36:38;;;;;;;2.33;0.60;;;;;;;21.27;95.06;92288.38;5133112;27;20353;-72
2022/09/17 07:39:05;;;;;;;3.90;1.20;;;;;;;21.58;100.00;92279.78;5132880;27;20051;-72
2022/09/17 07:41:33;;;;;;;2.35;0.80;;;;;;;21.97;100.00;92259.97;5116883;27;20039;-71
2022/09/17 07:44:01;;;;;;;4.03;1.02;;;;;;;22.34;97.06;92274.63;5123611;27;20047;-72
2022/09/17 07:46:28;;;;;;;4.45;1.20;;;;;;;22.73;100.00;92272.22;5132073;27;20482;-72
2022/09/17 07:48:55;;;;;;;6.20;1.20;;;;;;;23.04;93.29;92276.50;5133397;27;20051;-72
2022/09/17 07:51:23;;;;;;;2.65;0.63;;;;;;;23.38;96.72;92268.91;5132762;27;20039;-72
2022/09/17 07:53:52;;;;;;;4.05;0.57;;;;;;;23.68;91.35;92258.47;5133328;27;20096;-72
2022/09/17 07:56:19;;;;;;;2.00;0.50;;;;;;;23.92;91.22;92257.16;5109735;27;20522;-72
2022/09/17 07:58:46;;;;;;;5.80;0.80;;;;;;;23.87;85.07;92264.09;5110885;28;20092;-72
2022/09/17 08:01:15;;;;;;;3.17;0.95;;;;;;;23.91;85.05;92266.84;5111524;28;20089;-72
2022/09/17 08:03:43;;;;;;;3.78;0.88;;;;;;;24.12;86.86;92256.41;5097398;27;20054;-72
2022/09/17 08:06:12;;;;;;;4.53;1.10;;;;;;;24.23;82.36;92237.69;5133019;27;20092;-72
2022/09/17 08:08:39;;;;;;;12.05;6.65;;;;;;;24.36;86.45;92226.19;5132889;27;20055;-72
2022/09/17 08:11:10;;;;;;;7.65;4.43;;;;;;;24.54;86.41;92239.19;5133007;27;20047;-72
2022/09/17 08:13:37;;;;;;;9.85;2.00;;;;;;;24.62;84.05;92234.94;5132621;27;20495;-72
2022/09/17 08:16:06;;;;;;;6.18;1.83;;;;;;;24.71;84.65;92214.63;5132441;27;20603;-72
2022/09/17 08:18:34;;;;;;;3.60;1.00;;;;;;;24.83;75.89;92237.56;5132793;27;20051;-72
2022/09/17 08:21:02;;;;;;;3.08;1.15;;;;;;;25.08;83.68;92221.88;5118243;27;20189;-72
2022/09/17 08:23:30;;;;;;;6.72;1.98;;;;;;;25.14;83.78;92225.84;5132415;27;20499;-72
2022/09/17 08:25:58;;;;;;;2.05;0.90;;;;;;;24.99;78.21;92229.84;5132666;27;20042;-72
2022/09/17 08:28:28;;;;;;;4.40;1.20;;;;;;;24.78;81.28;92216.72;5131323;27;20054;-72
2022/09/17 08:31:00;;;;;;;2.70;1.10;;;;;;;24.98;83.43;92227.56;5131752;27;20047;-72
2022/09/17 08:33:26;;;;;;;6.35;2.85;;;;;;;25.09;83.54;92232.06;5129681;27;20440;-72
2022/09/17 08:35:54;;;;;;;3.08;1.08;;;;;;;24.90;78.59;92234.44;5130695;27;20130;-72
2022/09/17 08:38:21;;;;;;;4.55;1.63;;;;;;;24.90;84.38;92223.91;5132361;27;20039;-72
2022/09/17 08:41:00;;;;;;;3.53;1.00;;;;;;;24.99;83.43;92221.19;5120406;27;20058;-72
2022/09/17 08:43:31;;;;;;;4.78;1.58;;;;;;;25.05;85.22;92233.03;5120755;27;20051;-72
2022/09/17 08:45:59;;;;;;;3.75;1.70;;;;;;;25.03;85.07;92238.63;5114134;27;20074;-73
2022/09/17 08:48:36;;;;;;;8.00;2.03;;;;;;;25.03;84.84;92249.13;5132123;27;20042;-73
2022/09/17 08:51:11;;;;;;;4.32;2.05;;;;;;;24.87;85.30;92248.19;5131986;27;20055;-73
2022/09/17 08:53:50;;;;;;;7.25;2.40;;;;;;;24.61;85.63;92236.00;5132102;27;20047;-73
2022/09/17 08:56:20;;;;;;;6.80;2.33;;;;;;;24.54;86.78;92241.81;5131695;27;20571;-73
2022/09/17 08:59:03;;;;;;;5.90;2.00;;;;;;;24.43;87.87;92241.41;5132010;27;20050;-72
2022/09/17 09:01:40;;;;;;;7.03;2.30;;;;;;;24.35;89.80;92239.63;5119206;27;20443;-72
2022/09/17 09:04:43;;;;;;;5.07;2.17;;;;;;;24.13;91.75;92244.88;5101397;28;20044;-72
2022/09/17 09:07:18;;;;;;;6.40;2.30;;;;;;;23.97;95.36;92249.09;5112340;28;20048;-72
2022/09/17 09:09:52;;;;;;;10.40;2.73;;;;;;;23.79;99.45;92245.78;5091930;28;20071;-72
2022/09/17 09:12:25;;;;;;;8.43;2.20;;;;;;;23.52;99.50;92255.59;5126498;27;20414;-72
2022/09/17 09:14:59;;;;;;;7.05;2.22;;;;;;;23.32;100.00;92255.19;5133089;27;20055;-71
2022/09/17 09:17:33;;;;;;;6.90;1.95;;;;;;;23.01;100.00;92272.66;5131485;27;20047;-71
2022/09/17 09:20:00;;;;;;;6.78;2.00;;;;;;;22.92;100.00;92277.13;5120790;27;20051;-72
2022/09/17 09:22:42;;;;;;;6.50;1.95;;;;;;;22.62;100.00;92277.75;5128555;27;20047;-72
2022/09/17 09:25:19;;;;;;;8.45;2.28;;;;;;;22.50;100.00;92299.28;5131291;27;20051;-72
2022/09/17 09:28:08;;;;;;;5.03;1.30;;;;;;;22.11;100.00;92303.50;5130602;27;20051;-72
2022/09/17 09:30:52;;;;;;;8.90;1.88;;;;;;;21.64;100.00;92323.00;5131335;27;20043;-72
2022/09/17 09:33:28;;;;;;;5.22;1.63;;;;;;;21.45;100.00;92336.28;5107984;27;20437;-72
2022/09/17 09:35:54;;;;;;;;;;;;;;;21.40;100.00;92344.25;5131547;27;20517;-72
2022/09/17 09:38:29;;;;;;;5.53;2.10;;;;;;;20.91;100.00;92331.78;5131347;27;19987;-72
2022/09/17 09:41:02;;;;;;;6.50;2.30;;;;;;;20.94;100.00;92345.03;5119402;27;20130;-72
2022/09/17 09:43:37;;;;;;;8.10;2.20;;;;;;;21.03;100.00;92360.75;5125570;27;20141;-73
2022/09/17 09:46:31;;;;;;;6.13;2.30;;;;;;;20.98;100.00;92360.09;5126201;27;20112;-72
2022/09/17 09:49:10;;;;;;;10.10;2.92;;;;;;;20.98;100.00;92336.59;5131194;27;20491;-72
2022/09/17 09:51:49;;;;;;;10.80;3.35;;;;;;;20.88;100.00;92320.09;5130763;27;20133;-72
2022/09/17 09:54:31;;;;;;;13.90;3.97;;;;;;;20.76;100.00;92304.16;5130773;27;20495;-72
2022/09/17 09:57:04;;;;;;;9.48;3.17;;;;;;;20.69;100.00;92287.06;5130679;27;20047;-72
2022/09/17 09:59:32;;;;;;;9.07;3.30;;;;;;;20.55;100.00;92255.81;5130912;27;20049;-72
2022/09/17 10:02:00;;;;;;;9.55;3.20;;;;;;;20.44;100.00;92228.41;5101414;27;20051;-72
2022/09/17 10:04:28;;;;;;;9.95;3.20;;;;;;;20.37;100.00;92230.66;5130393;27;20055;-73
2022/09/17 10:07:02;;;;;;;6.47;2.58;;;;;;;20.31;100.00;92209.13;5101512;27;20059;-72
2022/09/17 10:09:31;;;;;;;8.32;2.65;;;;;;;20.23;100.00;92189.00;5125475;27;20043;-72
2022/09/17 10:12:03;;;;;;;5.53;2.47;;;;;;;20.16;100.00;92184.16;5130165;27;20043;-72
2022/09/17 10:14:32;;;;;;;7.80;2.33;;;;;;;20.09;100.00;92168.94;5130658;27;20115;-72
2022/09/17 10:17:23;;;;;;;8.73;2.58;;;;;;;20.02;100.00;92173.78;5130568;27;20100;-72
2022/09/17 10:20:16;;;;;;;6.68;2.40;;;;;;;19.85;100.00;92190.78;5120907;27;20453;-72
2022/09/17 10:22:45;;;;;;;7.55;2.15;;;;;;;19.66;100.00;92174.50;5129639;27;20047;-72
2022/09/17 10:25:31;;;;;;;6.75;3.00;;;;;;;19.71;100.00;92197.81;5130327;27;20095;-72
2022/09/17 10:28:01;;;;;;;11.35;2.85;;;;;;;19.59;100.00;92199.09;5129827;27;20092;-72
2022/09/17 10:30:28;;;;;;;5.70;2.25;;;;;;;19.47;100.00;92185.78;5130095;27;20043;-72
2022/09/17 10:33:19;;;;;;;5.93;2.70;;;;;;;19.50;100.00;92193.78;5130265;27;20047;-72
2022/09/17 10:35:57;;;;;;;5.68;2.03;;;;;;;19.49;100.00;92194.09;5129733;27;20544;-72
2022/09/17 10:38:33;;;;;;;6.85;1.60;;;;;;;19.47;100.00;92196.22;5129819;27;20662;-72
2022/09/17 10:41:10;;;;;;;;;;;;;;;19.40;100.00;92208.84;5116668;27;20453;-72
2022/09/17 10:43:37;;;;;;;5.55;2.15;;;;;;;19.32;100.00;92192.84;5117365;27;20395;-72
2022/09/17 10:46:04;;;;;;;7.70;2.40;;;;;;;19.33;100.00;92202.19;5116047;27;20499;-72
2022/09/17 10:48:37;;;;;;;5.55;2.45;;;;;;;19.40;100.00;92190.63;5130329;27;20098;-72
2022/09/17 10:51:07;;;;;;;10.15;2.53;;;;;;;19.48;100.00;92192.53;5129741;28;20035;-72
2022/09/17 10:53:54;;;;;;;4.53;2.30;;;;;;;19.50;100.00;92182.63;5129795;28;20099;-72
2022/09/17 10:56:25;;;;;;;9.60;3.03;;;;;;;19.59;100.00;92198.34;5131948;27;20039;-72
2022/09/17 10:59:01;;;;;;;6.13;2.35;;;;;;;19.69;100.00;92208.56;5133973;27;20104;-72
2022/09/17 11:01:40;;;;;;;6.60;2.90;;;;;;;19.60;100.00;92208.47;5134427;27;20055;-72
2022/09/17 11:04:21;;;;;;;6.60;2.55;;;;;;;19.68;100.00;92216.66;5120220;27;20093;-71
2022/09/17 11:07:22;;;;;;;6.63;2.30;;;;;;;19.71;100.00;92219.44;5116870;27;20499;-72
2022/09/17 11:10:00;;;;;;;6.82;2.13;;;;;;;19.70;100.00;92212.72;5108925;27;20043;-72
2022/09/17 11:12:41;;;;;;;9.43;2.90;;;;;;;19.75;100.00;92198.78;5115403;27;20084;-72
2022/09/17 11:15:24;;;;;;;6.53;1.95;;;;;;;19.70;100.00;92198.91;5120245;27;20131;-72
2022/09/17 11:18:08;;;;;;;4.28;1.77;;;;;;;19.66;100.00;92201.31;5132901;27;20092;-72
2022/09/17 11:20:56;;;;;;;6.05;1.48;;;;;;;19.65;100.00;92199.00;5113491;28;20105;-72
2022/09/17 11:23:46;;;;;;;7.65;1.70;;;;;;;19.63;100.00;92204.53;5101127;27;20461;-71
2022/09/17 11:26:26;;;;;;;4.75;1.17;;;;;;;19.63;100.00;92210.47;5122807;27;20437;-72
2022/09/17 11:29:05;;;;;;;2.78;1.00;;;;;;;19.52;100.00;92216.19;5121501;27;20035;-72
2022/09/17 11:31:37;;;;;;;2.15;0.70;;;;;;;19.40;100.00;92220.06;5122115;27;20507;-72
2022/09/17 11:34:20;;;;;;;6.07;1.48;;;;;;;19.38;100.00;92201.31;5120390;27;20050;-71
2022/09/17 11:36:56;;;;;;;5.10;1.27;;;;;;;19.26;100.00;92201.81;5132665;27;20088;-71
2022/09/17 11:39:26;;;;;;;3.85;1.13;;;;;;;19.08;100.00;92174.81;5120861;27;20044;-71
2022/09/17 11:41:55;;;;;;;4.10;1.20;;;;;;;19.05;100.00;92183.97;5094800;28;20097;-71
2022/09/17 11:44:27;;;;;;;3.25;1.63;;;;;;;18.81;100.00;92173.66;5092129;28;20540;-71